Humboldt, Nebraska
Current Conditions -  °F | °C
As of 6:53 AM on Friday 19 Dec 2014 (Local Time) from KFNB Reporting Station
Overcast Overcast  
Wind Chill: 23°   Ceiling: 900
Heat Index: 29°   Visibility: 10mi
Dew Point: 26°   Wind: 6mph
Humidity: 89%   Direction: 230°SW
Pressure: 30.24"   Gusts: NA
Location:  40.16°N, 95.94°W
Report Text: KFNB 191253Z AUTO 23005KT 10SM OVC009 M02/M03 A3024 RMK AO2 CIG 006V012 SLP251 T10171033
Loading
Personal Weather Stations






























Interactive Weather Map New forecast layout! Learn more

10-Day Weather Forecast

Advertisements
Track Severe Weather on mobile